Time;durP1;ratioP1;P1;durP2;ratioP2;P2;SDS_P1;SDS_P2;PMS_P1;PMS_P2;Temp;Humidity;BMP_temperature;BMP_pressure;BME280_temperature;BME280_humidity;BME280_pressure;Samples;Min_cycle;Max_cycle;Signal;HPM_P1;HPM_P2
2021/10/04 00:01:31;;;;;;;4.23;3.10;;;18.80;70.70;;;;;;5105985;28;21037;-64
2021/10/04 00:03:58;;;;;;;6.27;3.67;;;18.80;71.00;;;;;;5110731;28;20434;-63
2021/10/04 00:06:27;;;;;;;5.00;3.67;;;18.80;71.10;;;;;;5112801;28;20939;-63
2021/10/04 00:08:54;;;;;;;3.60;3.30;;;18.80;71.10;;;;;;5111474;28;20422;-63
2021/10/04 00:11:22;;;;;;;4.00;3.60;;;18.80;71.40;;;;;;5092409;28;20821;-63
2021/10/04 00:13:49;;;;;;;7.17;4.03;;;18.80;71.60;;;;;;5092591;28;20445;-65
2021/10/04 00:16:16;;;;;;;6.87;3.80;;;18.80;71.40;;;;;;5111859;28;20481;-63
2021/10/04 00:18:43;;;;;;;4.60;3.90;;;18.70;71.40;;;;;;5112700;28;20855;-62
2021/10/04 00:21:11;;;;;;;4.67;3.53;;;18.70;71.40;;;;;;5093793;28;20435;-64
2021/10/04 00:23:40;;;;;;;4.20;3.50;;;18.70;71.90;;;;;;5100665;28;20435;-64
2021/10/04 00:26:08;;;;;;;5.80;4.03;;;18.70;72.20;;;;;;5093458;28;20471;-64
2021/10/04 00:28:35;;;;;;;4.90;4.10;;;18.70;72.30;;;;;;5110237;28;20434;-64
2021/10/04 00:31:02;;;;;;;5.50;3.70;;;18.70;72.70;;;;;;5112682;28;20495;-64
2021/10/04 00:33:29;;;;;;;5.00;4.10;;;18.60;72.70;;;;;;5095105;28;20439;-65
2021/10/04 00:35:57;;;;;;;4.70;3.50;;;18.60;72.30;;;;;;5094607;28;20524;-65
2021/10/04 00:38:24;;;;;;;4.07;2.70;;;18.60;71.80;;;;;;5112835;28;20517;-64
2021/10/04 00:40:53;;;;;;;3.73;2.37;;;18.60;71.20;;;;;;5110885;28;20452;-65
2021/10/04 00:43:21;;;;;;;2.90;2.10;;;18.60;70.20;;;;;;5091835;28;20489;-64
2021/10/04 00:45:52;;;;;;;3.73;2.80;;;18.60;69.60;;;;;;5092353;28;20435;-65
2021/10/04 00:48:24;;;;;;;3.13;2.07;;;18.60;69.50;;;;;;5112209;28;21022;-64
2021/10/04 00:50:52;;;;;;;3.87;2.70;;;18.60;69.00;;;;;;5111381;28;20995;-64
2021/10/04 00:53:19;;;;;;;2.67;2.00;;;18.50;68.10;;;;;;5091907;28;20496;-64
2021/10/04 00:55:47;;;;;;;2.80;2.10;;;18.50;67.50;;;;;;5091569;28;20561;-64
2021/10/04 00:58:16;;;;;;;2.60;1.60;;;18.50;67.50;;;;;;5112107;28;20820;-62
2021/10/04 01:00:43;;;;;;;2.60;1.83;;;18.50;67.20;;;;;;5112195;28;20835;-63
2021/10/04 01:03:10;;;;;;;2.13;1.50;;;18.40;67.10;;;;;;5091660;28;20431;-63
2021/10/04 01:05:38;;;;;;;2.53;1.60;;;18.40;67.10;;;;;;5091554;28;20941;-63
2021/10/04 01:08:05;;;;;;;3.80;1.70;;;18.40;66.60;;;;;;5110892;28;20493;-63
2021/10/04 01:10:36;;;;;;;2.57;1.50;;;18.40;66.30;;;;;;5107274;28;20986;-63
2021/10/04 01:13:05;;;;;;;2.13;1.10;;;18.40;66.30;;;;;;5101187;28;20426;-63
2021/10/04 01:15:34;;;;;;;2.17;1.53;;;18.40;66.00;;;;;;5115134;28;20503;-63
2021/10/04 01:18:01;;;;;;;2.50;1.80;;;18.40;66.00;;;;;;5114653;28;20438;-63
2021/10/04 01:20:30;;;;;;;2.23;1.37;;;18.40;66.00;;;;;;5107940;28;20438;-63
2021/10/04 01:23:01;;;;;;;2.80;1.67;;;18.30;65.60;;;;;;5095109;28;20443;-63
2021/10/04 01:25:28;;;;;;;3.33;1.80;;;18.30;66.30;;;;;;5101639;28;20941;-64
2021/10/04 01:28:00;;;;;;;3.40;1.77;;;18.30;66.00;;;;;;5097747;28;20439;-63
2021/10/04 01:30:31;;;;;;;2.57;1.80;;;18.30;66.20;;;;;;5100949;28;20438;-64
2021/10/04 01:32:59;;;;;;;2.20;1.70;;;18.30;66.70;;;;;;5115395;28;20434;-63
2021/10/04 01:35:27;;;;;;;4.53;1.60;;;18.30;66.80;;;;;;5109383;28;20439;-63
2021/10/04 01:37:56;;;;;;;3.60;1.93;;;18.30;66.80;;;;;;5111534;28;20474;-64
2021/10/04 01:40:23;;;;;;;2.50;1.70;;;18.20;66.90;;;;;;5110404;28;20489;-63
2021/10/04 01:42:51;;;;;;;2.50;1.50;;;18.20;66.90;;;;;;5094830;28;20513;-63
2021/10/04 01:45:23;;;;;;;2.60;1.50;;;18.20;66.90;;;;;;5097908;28;20483;-63
2021/10/04 01:47:52;;;;;;;2.63;1.67;;;18.20;67.20;;;;;;5099218;28;20474;-63
2021/10/04 01:50:19;;;;;;;3.00;1.47;;;18.20;67.30;;;;;;5097082;28;20439;-63
2021/10/04 01:52:48;;;;;;;4.10;1.80;;;18.20;68.60;;;;;;5114910;28;20780;-63
2021/10/04 01:55:17;;;;;;;2.70;1.77;;;18.20;69.00;;;;;;5112833;28;20438;-63
2021/10/04 01:57:46;;;;;;;2.60;1.30;;;18.20;68.90;;;;;;5108365;28;20470;-63
2021/10/04 02:00:16;;;;;;;3.07;1.77;;;18.20;68.90;;;;;;5106439;28;20439;-64
2021/10/04 02:02:44;;;;;;;2.60;1.40;;;18.10;68.80;;;;;;5094185;28;20485;-63
2021/10/04 02:05:13;;;;;;;2.57;1.80;;;18.10;68.90;;;;;;5101131;28;20525;-63
2021/10/04 02:07:41;;;;;;;2.47;1.50;;;18.10;68.60;;;;;;5100765;28;20447;-63
2021/10/04 02:10:10;;;;;;;2.47;1.60;;;18.10;69.00;;;;;;5100170;28;20434;-63
2021/10/04 02:12:40;;;;;;;2.47;1.60;;;18.10;69.30;;;;;;5113986;28;20480;-63
2021/10/04 02:15:08;;;;;;;2.93;1.97;;;18.10;69.30;;;;;;5109083;28;20828;-63
2021/10/04 02:17:35;;;;;;;3.70;1.70;;;18.10;70.20;;;;;;5102513;28;20474;-64
2021/10/04 02:20:06;;;;;;;2.90;1.80;;;18.10;69.60;;;;;;5097590;28;20442;-64
2021/10/04 02:22:33;;;;;;;2.30;1.57;;;18.00;69.70;;;;;;5097373;28;20442;-64
2021/10/04 02:25:01;;;;;;;3.17;1.90;;;18.00;69.70;;;;;;5114052;28;20480;-63
2021/10/04 02:27:28;;;;;;;2.70;1.73;;;18.00;69.80;;;;;;5103285;28;20485;-64
2021/10/04 02:29:57;;;;;;;4.40;1.63;;;18.00;69.70;;;;;;5094116;28;20435;-64
2021/10/04 02:32:24;;;;;;;4.43;1.60;;;18.00;69.70;;;;;;5102804;28;20834;-63
2021/10/04 02:34:51;;;;;;;2.37;1.50;;;18.00;70.00;;;;;;5114182;28;20430;-64
2021/10/04 02:37:18;;;;;;;4.33;1.40;;;18.00;70.50;;;;;;5105107;28;20490;-63
2021/10/04 02:39:47;;;;;;;2.50;1.63;;;17.90;70.90;;;;;;5093803;28;20474;-64
2021/10/04 02:42:14;;;;;;;2.77;1.83;;;17.90;71.00;;;;;;5100972;28;20438;-64
2021/10/04 02:44:41;;;;;;;2.27;1.33;;;17.80;71.30;;;;;;5114110;28;20494;-63
2021/10/04 02:47:10;;;;;;;2.67;1.80;;;17.80;71.50;;;;;;5106338;28;20799;-63
2021/10/04 02:49:38;;;;;;;4.23;1.83;;;17.80;71.60;;;;;;5093850;28;20439;-63
2021/10/04 02:52:05;;;;;;;2.20;1.20;;;17.80;71.40;;;;;;5098863;28;20517;-63
2021/10/04 02:54:33;;;;;;;3.20;2.13;;;17.80;71.80;;;;;;5113702;28;20517;-63
2021/10/04 02:57:00;;;;;;;2.20;1.33;;;17.80;71.80;;;;;;5107373;28;20479;-63
2021/10/04 02:59:27;;;;;;;2.53;1.47;;;17.90;71.90;;;;;;5093570;28;20549;-63
2021/10/04 03:01:54;;;;;;;4.00;1.73;;;17.90;71.90;;;;;;5094305;28;20467;-63
2021/10/04 03:04:23;;;;;;;2.73;1.80;;;17.80;72.00;;;;;;5093172;28;20446;-63
2021/10/04 03:06:53;;;;;;;2.87;1.93;;;17.80;72.00;;;;;;5098021;28;20450;-63
2021/10/04 03:09:20;;;;;;;2.97;1.87;;;17.80;71.80;;;;;;5113489;28;20788;-63
2021/10/04 03:11:49;;;;;;;2.50;1.70;;;17.80;72.00;;;;;;5108588;28;20431;-63
2021/10/04 03:14:17;;;;;;;2.47;1.60;;;17.80;72.30;;;;;;5092910;28;20504;-63
2021/10/04 03:16:44;;;;;;;4.93;2.17;;;17.80;72.30;;;;;;5096725;28;20501;-63
2021/10/04 03:19:12;;;;;;;3.63;2.23;;;17.80;72.20;;;;;;5113518;28;20442;-63
2021/10/04 03:21:40;;;;;;;4.83;1.90;;;17.80;72.30;;;;;;5110224;28;20490;-63
2021/10/04 03:24:13;;;;;;;3.70;1.70;;;17.80;72.60;;;;;;5092522;28;20446;-63
2021/10/04 03:26:41;;;;;;;3.90;2.10;;;17.70;72.70;;;;;;5096128;28;20435;-63
2021/10/04 03:29:09;;;;;;;2.30;1.30;;;17.70;72.90;;;;;;5112999;28;20426;-63
2021/10/04 03:31:36;;;;;;;3.37;1.80;;;17.60;73.80;;;;;;5103115;28;20437;-63
2021/10/04 03:34:08;;;;;;;2.30;1.47;;;17.70;74.10;;;;;;5092674;28;20492;-63
2021/10/04 03:36:35;;;;;;;3.50;2.20;;;17.60;74.30;;;;;;5092738;28;20471;-63
2021/10/04 03:39:05;;;;;;;3.03;1.90;;;17.60;74.10;;;;;;5092696;28;20436;-63
2021/10/04 03:41:33;;;;;;;4.53;2.40;;;17.60;74.50;;;;;;5092384;28;20435;-63
2021/10/04 03:44:00;;;;;;;3.33;2.50;;;17.50;75.80;;;;;;5092860;28;20435;-63
2021/10/04 03:46:27;;;;;;;4.30;1.90;;;17.50;75.60;;;;;;5099244;28;20489;-63
2021/10/04 03:48:54;;;;;;;4.90;2.00;;;17.50;76.20;;;;;;5113063;28;20500;-63
2021/10/04 03:51:22;;;;;;;3.80;2.20;;;17.50;76.10;;;;;;5106717;28;20484;-63
2021/10/04 03:53:49;;;;;;;3.10;1.73;;;17.50;76.10;;;;;;5092819;28;20471;-63
2021/10/04 03:56:18;;;;;;;3.90;2.03;;;17.50;76.30;;;;;;5097464;28;20459;-63
2021/10/04 03:58:47;;;;;;;2.90;1.90;;;17.50;76.40;;;;;;5112600;28;20513;-63
2021/10/04 04:01:14;;;;;;;6.00;1.60;;;17.50;76.70;;;;;;5108091;28;20866;-63
2021/10/04 04:03:42;;;;;;;5.10;1.80;;;17.50;76.80;;;;;;5092626;28;20572;-63
2021/10/04 04:06:11;;;;;;;7.07;2.23;;;17.50;76.90;;;;;;5096010;28;20433;-63
2021/10/04 04:08:39;;;;;;;5.50;2.67;;;17.50;77.00;;;;;;5112969;28;20934;-63
2021/10/04 04:11:06;;;;;;;5.40;3.10;;;17.40;77.30;;;;;;5098963;28;20439;-63
2021/10/04 04:13:35;;;;;;;2.90;1.80;;;17.40;77.80;;;;;;5092503;28;20847;-63
2021/10/04 04:16:02;;;;;;;4.53;3.00;;;17.40;77.70;;;;;;5102123;28;20798;-63
2021/10/04 04:18:29;;;;;;;3.27;2.43;;;17.40;77.50;;;;;;5112736;28;20567;-64
2021/10/04 04:20:58;;;;;;;2.77;1.90;;;17.40;77.30;;;;;;5101341;28;20450;-63
2021/10/04 04:23:26;;;;;;;3.73;2.90;;;17.40;77.30;;;;;;5092419;28;20842;-64
2021/10/04 04:25:53;;;;;;;5.50;2.27;;;17.40;77.50;;;;;;5102252;28;20854;-64
2021/10/04 04:28:21;;;;;;;3.30;2.30;;;17.40;78.20;;;;;;5112363;28;20495;-63
2021/10/04 04:30:50;;;;;;;3.70;2.40;;;17.40;77.70;;;;;;5103181;28;20467;-63
2021/10/04 04:33:19;;;;;;;3.73;2.27;;;17.40;77.50;;;;;;5092426;28;20471;-64
2021/10/04 04:35:46;;;;;;;4.10;3.10;;;17.40;77.50;;;;;;5100089;28;20797;-64
2021/10/04 04:38:13;;;;;;;4.17;1.97;;;17.40;77.50;;;;;;5112647;28;20515;-63
2021/10/04 04:40:40;;;;;;;3.27;2.40;;;17.40;77.30;;;;;;5110753;28;20960;-63
2021/10/04 04:43:10;;;;;;;3.37;2.13;;;17.30;77.10;;;;;;5112717;28;20515;-63
2021/10/04 04:45:38;;;;;;;2.83;2.03;;;17.30;77.50;;;;;;5105631;28;20435;-63
2021/10/04 04:48:07;;;;;;;3.47;2.43;;;17.20;77.50;;;;;;5092792;28;20528;-63
2021/10/04 04:50:37;;;;;;;4.17;2.23;;;17.20;77.90;;;;;;5101774;28;20514;-63
2021/10/04 04:53:04;;;;;;;4.97;2.80;;;17.20;77.80;;;;;;5116508;28;20464;-64
2021/10/04 04:55:31;;;;;;;5.80;3.10;;;17.20;78.20;;;;;;5114097;28;20437;-64
2021/10/04 04:57:58;;;;;;;4.73;2.70;;;17.20;78.60;;;;;;5116091;28;20597;-63
2021/10/04 05:00:26;;;;;;;4.00;2.77;;;17.10;78.50;;;;;;5108097;28;20767;-63
2021/10/04 05:02:53;;;;;;;4.23;3.07;;;17.10;78.40;;;;;;5095901;28;20450;-63
2021/10/04 05:05:22;;;;;;;4.63;2.60;;;17.10;78.40;;;;;;5102613;28;20471;-63
2021/10/04 05:07:49;;;;;;;4.87;2.63;;;17.10;78.30;;;;;;5116139;28;20438;-63
2021/10/04 05:10:17;;;;;;;3.70;2.60;;;17.10;78.40;;;;;;5112837;28;20483;-64
2021/10/04 05:12:44;;;;;;;5.57;2.50;;;17.00;78.40;;;;;;5115736;28;20949;-63
2021/10/04 05:15:12;;;;;;;4.67;2.97;;;17.00;78.80;;;;;;5106531;28;20438;-64
2021/10/04 05:17:39;;;;;;;4.77;3.00;;;17.00;78.90;;;;;;5113238;28;20486;-62
2021/10/04 05:20:07;;;;;;;5.17;2.57;;;17.00;79.00;;;;;;5109282;28;20526;-63
2021/10/04 05:22:41;;;;;;;3.43;2.67;;;17.00;79.00;;;;;;5094926;28;20427;-63
2021/10/04 05:25:10;;;;;;;3.60;2.50;;;17.00;78.90;;;;;;5094771;28;20848;-63
2021/10/04 05:27:38;;;;;;;3.90;2.27;;;17.00;78.80;;;;;;5094387;28;20431;-64
2021/10/04 05:30:07;;;;;;;3.00;2.13;;;17.00;78.60;;;;;;5094696;28;20830;-63
2021/10/04 05:32:35;;;;;;;3.80;2.80;;;17.00;78.40;;;;;;5094886;28;20469;-63
2021/10/04 05:35:02;;;;;;;3.57;2.10;;;17.00;78.40;;;;;;5094804;28;20493;-63
2021/10/04 05:37:29;;;;;;;6.00;2.37;;;16.90;78.50;;;;;;5111573;28;20534;-64
2021/10/04 05:39:58;;;;;;;3.60;2.67;;;16.90;78.70;;;;;;5111589;28;20470;-63
2021/10/04 05:42:27;;;;;;;3.80;2.37;;;16.90;79.10;;;;;;5112378;28;20434;-64
2021/10/04 05:44:57;;;;;;;4.80;2.87;;;16.90;79.00;;;;;;5110782;28;20521;-63
2021/10/04 05:47:24;;;;;;;7.20;2.70;;;16.90;79.10;;;;;;5101403;28;20549;-63
2021/10/04 05:49:52;;;;;;;3.47;2.37;;;16.90;79.30;;;;;;5112976;28;20575;-63
2021/10/04 05:52:22;;;;;;;7.30;2.63;;;16.90;79.40;;;;;;5111538;28;20441;-64
2021/10/04 05:54:49;;;;;;;4.83;2.53;;;16.90;79.60;;;;;;5112611;28;20823;-63
2021/10/04 05:57:18;;;;;;;6.07;3.03;;;16.90;79.60;;;;;;5104186;28;20446;-63
2021/10/04 05:59:45;;;;;;;6.93;2.80;;;16.90;79.80;;;;;;5093378;28;20771;-63
2021/10/04 06:02:12;;;;;;;6.67;3.40;;;17.00;79.60;;;;;;5093919;28;20847;-64
2021/10/04 06:04:39;;;;;;;9.77;3.80;;;16.90;79.50;;;;;;5094372;28;20528;-65
2021/10/04 06:07:06;;;;;;;4.70;3.10;;;16.90;79.40;;;;;;5094492;28;20529;-63
2021/10/04 06:09:33;;;;;;;6.33;2.20;;;17.00;79.60;;;;;;5093818;28;20471;-63
2021/10/04 06:12:00;;;;;;;5.47;2.40;;;17.00;79.20;;;;;;5098990;28;20467;-63
2021/10/04 06:14:29;;;;;;;4.80;2.60;;;17.00;78.80;;;;;;5093891;28;20982;-63
2021/10/04 06:16:56;;;;;;;2.90;1.73;;;17.00;77.70;;;;;;5094060;28;20458;-63
2021/10/04 06:19:24;;;;;;;3.50;2.40;;;17.10;77.20;;;;;;5093994;28;20956;-64
2021/10/04 06:21:51;;;;;;;4.60;2.53;;;17.10;77.30;;;;;;5096529;28;20993;-63
2021/10/04 06:24:18;;;;;;;11.50;2.87;;;17.10;77.80;;;;;;5093986;28;20769;-63
2021/10/04 06:26:45;;;;;;;7.60;2.80;;;17.10;78.20;;;;;;5094159;28;20436;-63
2021/10/04 06:29:14;;;;;;;2.93;2.23;;;17.20;78.40;;;;;;5108074;28;20525;-65
2021/10/04 06:31:42;;;;;;;6.63;2.30;;;17.30;77.90;;;;;;5096249;28;20463;-64
2021/10/04 06:34:10;;;;;;;4.07;2.17;;;17.30;76.40;;;;;;5096601;28;20447;-64
2021/10/04 06:36:37;;;;;;;5.33;2.60;;;17.30;76.20;;;;;;5110363;28;20439;-63
2021/10/04 06:39:04;;;;;;;3.67;1.90;;;17.40;76.00;;;;;;5102734;28;20913;-64
2021/10/04 06:41:31;;;;;;;4.03;2.50;;;17.40;76.10;;;;;;5093787;28;20531;-64
2021/10/04 06:43:59;;;;;;;4.60;2.00;;;17.40;75.70;;;;;;5094303;28;20450;-64
2021/10/04 06:46:30;;;;;;;8.50;1.80;;;17.50;75.00;;;;;;5094141;28;20953;-65
2021/10/04 06:48:59;;;;;;;3.87;1.80;;;17.50;74.30;;;;;;5096526;28;20465;-64
2021/10/04 06:51:26;;;;;;;4.50;2.83;;;17.50;73.20;;;;;;5092304;28;20458;-64
2021/10/04 06:53:54;;;;;;;5.40;2.07;;;17.50;73.20;;;;;;5092920;28;20526;-63
2021/10/04 06:56:21;;;;;;;2.10;1.50;;;17.50;73.10;;;;;;5094091;28;20435;-64
2021/10/04 06:58:53;;;;;;;3.13;1.90;;;17.50;72.60;;;;;;5092566;28;20495;-64
2021/10/04 07:01:20;;;;;;;2.70;1.90;;;17.60;72.50;;;;;;5109314;28;20444;-64
2021/10/04 07:03:48;;;;;;;2.83;1.37;;;17.60;72.60;;;;;;5094000;28;20449;-65
2021/10/04 07:06:16;;;;;;;3.20;1.67;;;17.60;72.10;;;;;;5094302;28;20467;-64
2021/10/04 07:08:45;;;;;;;6.10;1.50;;;17.60;72.00;;;;;;5093787;28;20478;-64
2021/10/04 07:11:17;;;;;;;2.43;1.37;;;17.60;71.40;;;;;;5093776;28;20534;-64
2021/10/04 07:13:44;;;;;;;5.50;1.80;;;17.70;71.00;;;;;;5093866;28;20782;-64
2021/10/04 07:16:13;;;;;;;5.20;1.93;;;17.70;71.20;;;;;;5093646;28;20443;-64
2021/10/04 07:18:41;;;;;;;6.40;2.47;;;17.70;71.00;;;;;;5093702;28;20482;-64
2021/10/04 07:21:09;;;;;;;3.83;1.57;;;17.80;71.10;;;;;;5093835;28;20862;-64
2021/10/04 07:23:38;;;;;;;2.40;1.40;;;17.80;70.70;;;;;;5093491;28;20447;-64
2021/10/04 07:26:06;;;;;;;4.07;1.60;;;17.80;69.60;;;;;;5093593;28;20432;-64
2021/10/04 07:28:38;;;;;;;2.90;1.80;;;17.80;68.90;;;;;;5093215;28;20937;-65
2021/10/04 07:31:06;;;;;;;2.93;1.43;;;17.80;69.00;;;;;;5093760;28;20466;-64
2021/10/04 07:33:34;;;;;;;2.97;1.60;;;17.90;68.60;;;;;;5093090;28;20522;-64
2021/10/04 07:36:06;;;;;;;2.60;1.37;;;17.90;68.70;;;;;;5093150;28;20857;-64
2021/10/04 07:38:33;;;;;;;2.60;1.53;;;17.90;68.00;;;;;;5093002;28;20482;-64
2021/10/04 07:41:02;;;;;;;2.20;1.37;;;17.90;67.60;;;;;;5092977;28;20446;-64
2021/10/04 07:43:29;;;;;;;2.63;1.70;;;18.00;68.00;;;;;;5093051;28;20879;-65
2021/10/04 07:45:56;;;;;;;2.73;1.60;;;18.00;68.00;;;;;;5093423;28;20466;-65
2021/10/04 07:48:22;;;;;;;2.57;1.50;;;18.00;67.90;;;;;;5093376;28;20454;-65
2021/10/04 07:50:51;;;;;;;5.73;1.40;;;18.00;68.10;;;;;;5093177;28;20926;-64
2021/10/04 07:53:18;;;;;;;3.27;1.50;;;18.00;67.20;;;;;;5093378;28;20438;-65
2021/10/04 07:55:45;;;;;;;2.80;1.30;;;17.90;67.30;;;;;;5093124;28;20991;-64
2021/10/04 07:58:13;;;;;;;2.20;1.40;;;17.90;67.40;;;;;;5092993;28;20906;-64
2021/10/04 08:00:40;;;;;;;2.30;1.10;;;17.90;67.90;;;;;;5093376;28;20431;-64
2021/10/04 08:03:08;;;;;;;2.57;1.50;;;17.90;68.50;;;;;;5093194;28;20477;-64
2021/10/04 08:05:35;;;;;;;3.00;1.47;;;17.90;68.40;;;;;;5093172;28;20514;-64
2021/10/04 08:08:01;;;;;;;3.30;1.37;;;17.90;69.00;;;;;;5093199;28;20508;-65
2021/10/04 08:10:30;;;;;;;2.03;1.13;;;17.90;68.40;;;;;;5092689;28;20533;-64
2021/10/04 08:13:04;;;;;;;3.40;1.67;;;17.90;68.40;;;;;;5092869;28;20439;-64
2021/10/04 08:15:38;;;;;;;2.90;1.57;;;17.90;68.30;;;;;;5092449;28;20439;-65
2021/10/04 08:18:05;;;;;;;6.13;1.73;;;17.90;68.90;;;;;;5092733;28;20463;-64
2021/10/04 08:20:32;;;;;;;2.80;1.30;;;17.90;68.90;;;;;;5088265;28;20518;-65
2021/10/04 08:22:59;;;;;;;4.37;2.23;;;17.90;69.20;;;;;;5098344;28;20516;-65
2021/10/04 08:25:26;;;;;;;4.30;1.60;;;17.90;69.80;;;;;;5098812;28;22041;-64
2021/10/04 08:27:55;;;;;;;2.50;1.20;;;17.90;69.60;;;;;;5095686;28;20534;-65
2021/10/04 08:30:22;;;;;;;2.20;1.07;;;17.90;69.60;;;;;;5097661;28;20467;-65
2021/10/04 08:32:51;;;;;;;2.20;1.00;;;17.80;68.90;;;;;;5097858;28;21019;-64
2021/10/04 08:35:18;;;;;;;2.17;1.40;;;17.80;68.90;;;;;;5097955;28;20442;-64
2021/10/04 08:37:45;;;;;;;3.30;1.30;;;17.80;69.50;;;;;;5109687;28;20513;-64
2021/10/04 08:40:15;;;;;;;3.47;1.37;;;17.80;69.60;;;;;;5108337;28;20547;-64
2021/10/04 08:42:43;;;;;;;2.43;1.40;;;17.80;69.60;;;;;;5096948;28;20872;-64
2021/10/04 08:45:11;;;;;;;4.13;1.50;;;17.80;69.60;;;;;;5093237;28;20449;-64
2021/10/04 08:47:39;;;;;;;3.40;1.50;;;17.80;69.40;;;;;;5095568;28;20473;-65
2021/10/04 08:50:10;;;;;;;2.83;1.50;;;17.80;69.70;;;;;;5097611;28;20832;-64
2021/10/04 08:52:46;;;;;;;7.30;1.67;;;17.90;69.40;;;;;;5095070;28;20479;-65
2021/10/04 08:55:13;;;;;;;3.40;1.83;;;17.90;69.80;;;;;;5093982;28;20625;-65
2021/10/04 08:57:40;;;;;;;2.43;1.43;;;17.90;70.20;;;;;;5095306;28;20530;-65
2021/10/04 09:00:08;;;;;;;2.50;1.43;;;17.90;69.90;;;;;;5093750;28;20493;-65
2021/10/04 09:02:36;;;;;;;3.30;1.80;;;17.90;69.90;;;;;;5096140;28;20522;-66
2021/10/04 09:05:18;;;;;;;3.67;1.97;;;17.90;70.00;;;;;;5097518;28;20447;-65
2021/10/04 09:07:49;;;;;;;4.23;1.40;;;17.90;69.40;;;;;;5093630;28;20443;-65
2021/10/04 09:10:19;;;;;;;2.50;1.77;;;17.80;69.20;;;;;;5098556;28;20434;-66
2021/10/04 09:12:50;;;;;;;3.40;1.50;;;17.80;69.30;;;;;;5095304;28;20525;-64
2021/10/04 09:15:42;;;;;;;2.60;1.60;;;17.80;69.20;;;;;;5096136;28;20529;-65
2021/10/04 09:18:10;;;;;;;2.63;1.63;;;17.80;69.40;;;;;;5087907;28;20529;-65
2021/10/04 09:20:57;;;;;;;3.37;2.30;;;17.80;69.60;;;;;;5094448;28;20470;-64
2021/10/04 09:23:36;;;;;;;2.00;1.33;;;17.70;69.60;;;;;;5092822;28;20971;-66
2021/10/04 09:26:06;;;;;;;3.50;1.70;;;17.70;70.00;;;;;;5092639;28;20470;-65
2021/10/04 09:28:34;;;;;;;2.60;1.50;;;17.70;70.10;;;;;;5093135;28;20534;-65
2021/10/04 09:31:20;;;;;;;2.70;1.33;;;17.70;70.30;;;;;;5094636;28;20866;-64
2021/10/04 09:34:01;;;;;;;3.90;1.73;;;17.70;71.00;;;;;;5097002;28;20528;-65
2021/10/04 09:36:30;;;;;;;2.00;1.20;;;17.70;70.70;;;;;;5095450;28;20468;-64
2021/10/04 09:39:20;;;;;;;3.17;1.80;;;17.70;70.70;;;;;;5095625;28;20510;-65
2021/10/04 09:42:06;;;;;;;2.50;1.53;;;17.70;70.70;;;;;;5092993;28;20784;-65
2021/10/04 09:44:51;;;;;;;4.37;1.40;;;17.70;70.60;;;;;;5092912;28;20550;-65
2021/10/04 09:47:21;;;;;;;3.17;1.77;;;17.70;71.20;;;;;;5092473;28;20524;-66
2021/10/04 09:49:54;;;;;;;2.50;1.57;;;17.70;71.70;;;;;;5093221;28;20529;-65
2021/10/04 09:52:36;;;;;;;2.53;1.40;;;17.70;71.30;;;;;;5097488;28;20439;-65
2021/10/04 09:55:17;;;;;;;2.93;1.60;;;17.70;71.30;;;;;;5095773;28;20446;-64
2021/10/04 09:57:53;;;;;;;2.83;1.50;;;17.70;70.70;;;;;;5095763;28;20880;-63
2021/10/04 10:00:20;;;;;;;4.23;2.03;;;17.80;71.10;;;;;;5097400;28;20585;-65
2021/10/04 10:02:54;;;;;;;2.63;1.47;;;17.80;71.20;;;;;;5093395;28;20443;-65
2021/10/04 10:05:22;;;;;;;2.70;1.80;;;17.80;70.70;;;;;;5092546;28;20447;-65
2021/10/04 10:07:51;;;;;;;2.90;1.70;;;17.80;70.50;;;;;;5096755;28;20451;-66
2021/10/04 10:10:19;;;;;;;2.70;1.57;;;17.80;70.20;;;;;;5103307;28;20450;-64
2021/10/04 10:12:46;;;;;;;3.30;2.03;;;17.80;70.50;;;;;;5099673;28;20562;-64
2021/10/04 10:15:18;;;;;;;2.60;1.80;;;17.70;70.80;;;;;;5089845;28;20993;-64
2021/10/04 10:17:48;;;;;;;2.57;1.63;;;17.70;70.50;;;;;;5108711;28;20521;-64
2021/10/04 10:20:21;;;;;;;6.90;1.20;;;17.80;70.40;;;;;;5111184;28;20894;-63
2021/10/04 10:22:51;;;;;;;4.90;1.80;;;17.80;70.10;;;;;;5092911;28;20538;-63
2021/10/04 10:25:37;;;;;;;2.33;1.40;;;17.80;70.30;;;;;;5093559;28;20446;-64
2021/10/04 10:28:07;;;;;;;2.90;1.10;;;17.80;70.20;;;;;;5107631;28;20517;-64
2021/10/04 10:30:34;;;;;;;2.00;1.27;;;17.80;70.50;;;;;;5111268;28;20438;-63
2021/10/04 10:33:01;;;;;;;2.00;1.13;;;17.80;70.80;;;;;;5110806;28;20914;-64
2021/10/04 10:35:49;;;;;;;2.47;1.93;;;17.90;70.30;;;;;;5092981;28;20467;-63
2021/10/04 10:38:18;;;;;;;2.33;1.50;;;17.90;70.20;;;;;;5092683;28;20898;-64
2021/10/04 10:41:16;;;;;;;2.80;1.73;;;17.90;70.10;;;;;;5092686;28;20483;-63
2021/10/04 10:44:05;;;;;;;4.70;1.37;;;17.90;69.40;;;;;;5107627;28;20467;-63
2021/10/04 10:46:49;;;;;;;2.10;1.40;;;17.80;68.70;;;;;;5105121;28;20537;-63
2021/10/04 10:49:49;;;;;;;2.00;1.20;;;17.80;69.20;;;;;;5069577;28;20942;-65
2021/10/04 10:52:18;;;;;;;3.80;1.60;;;17.80;69.40;;;;;;5070556;28;20436;-64
2021/10/04 10:54:46;;;;;;;4.90;1.57;;;17.80;69.50;;;;;;5070226;28;20444;-65
2021/10/04 10:57:13;;;;;;;2.37;1.33;;;17.70;69.60;;;;;;5070417;28;20527;-64
2021/10/04 10:59:40;;;;;;;2.97;1.60;;;17.60;70.10;;;;;;5069567;28;20480;-65
2021/10/04 11:02:42;;;;;;;2.10;1.50;;;17.50;70.60;;;;;;5070111;28;20484;-66
2021/10/04 11:05:10;;;;;;;4.33;1.10;;;17.40;71.60;;;;;;5056784;28;20531;-64
2021/10/04 11:07:58;;;;;;;2.67;1.83;;;17.40;71.90;;;;;;5052026;28;20441;-65
2021/10/04 11:10:27;;;;;;;2.27;1.23;;;17.40;72.00;;;;;;5054662;28;20512;-65
2021/10/04 11:13:22;;;;;;;8.70;1.80;;;17.30;72.00;;;;;;5051196;28;20552;-66
2021/10/04 11:15:49;;;;;;;3.33;1.83;;;17.30;72.20;;;;;;5055235;28;20472;-64
2021/10/04 11:18:16;;;;;;;7.33;2.00;;;17.30;71.90;;;;;;5069074;28;20498;-64
2021/10/04 11:20:43;;;;;;;2.80;2.03;;;17.30;72.20;;;;;;5057113;28;20573;-63
2021/10/04 11:23:12;;;;;;;3.47;1.60;;;17.30;72.90;;;;;;5059955;28;20443;-64
2021/10/04 11:25:44;;;;;;;3.77;1.80;;;17.30;73.00;;;;;;5068823;28;20528;-64
2021/10/04 11:28:13;;;;;;;3.83;1.90;;;17.30;73.30;;;;;;5061834;28;20536;-63
2021/10/04 11:30:59;;;;;;;4.43;1.77;;;17.30;72.80;;;;;;5050671;28;20791;-62
2021/10/04 11:33:30;;;;;;;6.13;1.73;;;17.30;72.90;;;;;;5051035;28;20524;-64
2021/10/04 11:35:59;;;;;;;2.63;1.87;;;17.30;73.10;;;;;;5050944;28;20523;-65
2021/10/04 11:38:27;;;;;;;2.37;1.60;;;17.30;72.20;;;;;;5065588;28;21002;-65
2021/10/04 11:40:56;;;;;;;2.93;2.30;;;17.20;72.20;;;;;;5068882;28;21015;-65
2021/10/04 11:43:24;;;;;;;2.90;2.03;;;17.20;71.90;;;;;;5053493;28;20433;-65
2021/10/04 11:45:56;;;;;;;3.80;2.27;;;17.20;72.30;;;;;;5067971;28;20424;-65
2021/10/04 11:48:29;;;;;;;3.60;2.17;;;17.20;72.80;;;;;;5093047;28;20565;-65
2021/10/04 11:50:57;;;;;;;3.23;1.70;;;17.20;72.40;;;;;;5090783;28;20438;-65
2021/10/04 11:53:25;;;;;;;2.73;1.90;;;17.10;73.00;;;;;;5103485;28;20520;-65
2021/10/04 11:56:06;;;;;;;4.73;2.10;;;17.10;72.80;;;;;;5090990;28;20448;-65
2021/10/04 11:58:34;;;;;;;3.50;2.20;;;17.10;72.50;;;;;;5097387;28;20442;-64
2021/10/04 12:01:01;;;;;;;3.40;1.50;;;17.10;72.00;;;;;;5109204;28;20625;-66
2021/10/04 12:03:31;;;;;;;2.57;1.50;;;17.20;71.90;;;;;;5109638;28;20434;-65
2021/10/04 12:06:00;;;;;;;1.70;0.90;;;17.20;72.10;;;;;;5108849;28;20532;-65
2021/10/04 12:08:36;;;;;;;3.10;1.40;;;17.20;71.30;;;;;;5108954;28;20521;-65
2021/10/04 12:11:07;;;;;;;3.50;1.50;;;17.20;71.30;;;;;;5109266;28;20430;-65
2021/10/04 12:13:36;;;;;;;2.47;1.43;;;17.20;71.00;;;;;;5091454;28;20442;-64
2021/10/04 12:16:07;;;;;;;2.10;1.23;;;17.20;70.80;;;;;;5091208;28;20450;-64
2021/10/04 12:18:40;;;;;;;2.97;1.90;;;17.20;71.00;;;;;;5091008;28;20518;-66
2021/10/04 12:21:27;;;;;;;1.93;1.40;;;17.20;71.00;;;;;;5090981;28;20566;-64
2021/10/04 12:24:08;;;;;;;2.77;1.77;;;17.20;71.00;;;;;;5090914;28;20956;-64
2021/10/04 12:26:53;;;;;;;3.40;1.50;;;17.20;70.90;;;;;;5095530;28;20430;-66
2021/10/04 12:29:35;;;;;;;2.70;2.07;;;17.20;71.10;;;;;;5091702;28;20521;-64
2021/10/04 12:32:21;;;;;;;3.07;2.00;;;17.20;71.20;;;;;;5090882;28;20981;-64
2021/10/04 12:34:59;;;;;;;3.10;1.70;;;17.20;71.00;;;;;;5091163;28;20522;-65
2021/10/04 12:37:28;;;;;;;3.97;1.73;;;17.20;71.40;;;;;;5093276;28;20458;-65
2021/10/04 12:39:55;;;;;;;6.77;1.60;;;17.20;71.50;;;;;;5091938;28;20593;-65
2021/10/04 12:42:23;;;;;;;3.13;1.40;;;17.10;70.50;;;;;;5090809;28;20439;-64
2021/10/04 12:44:50;;;;;;;2.93;1.63;;;17.00;71.50;;;;;;5090640;28;20445;-63
2021/10/04 12:47:18;;;;;;;2.83;1.40;;;17.10;71.70;;;;;;5090994;28;20471;-64
2021/10/04 12:49:55;;;;;;;3.43;2.10;;;17.00;71.10;;;;;;5090875;28;20788;-63
2021/10/04 12:52:23;;;;;;;7.00;1.70;;;17.00;71.10;;;;;;5091051;28;20525;-64
2021/10/04 12:54:53;;;;;;;5.07;1.80;;;17.00;71.30;;;;;;5090763;28;20529;-65
2021/10/04 12:57:25;;;;;;;3.23;1.63;;;17.00;71.50;;;;;;5090778;28;20447;-66
2021/10/04 13:00:01;;;;;;;2.63;1.80;;;17.00;71.40;;;;;;5090800;28;20576;-65
2021/10/04 13:02:28;;;;;;;3.00;1.87;;;17.00;71.10;;;;;;5090989;28;20529;-64